sensor_id;sensor_type;location;lat;lon;timestamp;pressure;altitude;pressure_sealevel;temperature;humidity
13241;BME280;6687;47.790;7.322;2023-06-10T05:25:06;98568.63;;;22.71;55.46
13241;BME280;6687;47.790;7.322;2023-06-10T05:27:33;98569.13;;;22.78;54.77
13241;BME280;6687;47.790;7.322;2023-06-10T05:30:00;98572.22;;;23.50;53.42
13241;BME280;6687;47.790;7.322;2023-06-10T05:32:27;98570.81;;;23.74;49.94
13241;BME280;6687;47.790;7.322;2023-06-10T05:34:53;98574.19;;;23.92;48.87
13241;BME280;6687;47.790;7.322;2023-06-10T05:37:20;98572.22;;;23.96;49.07
13241;BME280;6687;47.790;7.322;2023-06-10T05:39:47;98577.72;;;24.07;49.27
13241;BME280;6687;47.790;7.322;2023-06-10T05:42:15;98578.16;;;24.30;48.90
13241;BME280;6687;47.790;7.322;2023-06-10T05:44:41;98577.50;;;24.55;46.03
13241;BME280;6687;47.790;7.322;2023-06-10T05:47:08;98582.91;;;24.68;47.71
13241;BME280;6687;47.790;7.322;2023-06-10T05:49:35;98582.41;;;24.90;46.68
13241;BME280;6687;47.790;7.322;2023-06-10T05:52:02;98579.94;;;25.01;48.02
13241;BME280;6687;47.790;7.322;2023-06-10T05:54:28;98582.34;;;25.18;44.60
13241;BME280;6687;47.790;7.322;2023-06-10T05:56:55;98579.41;;;25.37;44.76
13241;BME280;6687;47.790;7.322;2023-06-10T05:59:23;98583.81;;;25.51;45.54
13241;BME280;6687;47.790;7.322;2023-06-10T06:01:50;98579.00;;;25.71;45.89
13241;BME280;6687;47.790;7.322;2023-06-10T06:04:17;98585.25;;;25.70;45.01
13241;BME280;6687;47.790;7.322;2023-06-10T06:06:43;98590.03;;;25.77;44.15
13241;BME280;6687;47.790;7.322;2023-06-10T06:09:10;98581.75;;;25.82;43.26
13241;BME280;6687;47.790;7.322;2023-06-10T06:11:38;98582.69;;;25.95;42.97
13241;BME280;6687;47.790;7.322;2023-06-10T06:14:04;98574.97;;;25.78;42.11
13241;BME280;6687;47.790;7.322;2023-06-10T06:16:32;98578.50;;;25.10;42.17
13241;BME280;6687;47.790;7.322;2023-06-10T06:18:59;98580.34;;;25.91;41.62
13241;BME280;6687;47.790;7.322;2023-06-10T06:21:26;98580.50;;;25.75;41.41
13241;BME280;6687;47.790;7.322;2023-06-10T06:23:52;98583.25;;;25.86;41.19
13241;BME280;6687;47.790;7.322;2023-06-10T06:26:19;98578.56;;;26.30;41.11
13241;BME280;6687;47.790;7.322;2023-06-10T06:28:46;98584.09;;;26.27;40.60
13241;BME280;6687;47.790;7.322;2023-06-10T06:31:13;98587.47;;;26.16;40.69
13241;BME280;6687;47.790;7.322;2023-06-10T06:33:41;98589.50;;;26.25;40.86
13241;BME280;6687;47.790;7.322;2023-06-10T06:36:07;98593.09;;;27.01;39.81
13241;BME280;6687;47.790;7.322;2023-06-10T06:38:34;98591.84;;;26.94;39.01
13241;BME280;6687;47.790;7.322;2023-06-10T06:41:01;98582.09;;;27.18;39.60
13241;BME280;6687;47.790;7.322;2023-06-10T06:43:28;98584.75;;;27.18;39.41
13241;BME280;6687;47.790;7.322;2023-06-10T06:45:55;98588.81;;;27.11;39.05
13241;BME280;6687;47.790;7.322;2023-06-10T06:48:22;98588.09;;;27.46;38.42
13241;BME280;6687;47.790;7.322;2023-06-10T06:50:50;98581.94;;;27.81;38.44
13241;BME280;6687;47.790;7.322;2023-06-10T06:53:17;98591.16;;;27.03;38.37
13241;BME280;6687;47.790;7.322;2023-06-10T06:55:44;98590.03;;;27.55;38.83
13241;BME280;6687;47.790;7.322;2023-06-10T06:58:10;98589.75;;;26.61;39.48
13241;BME280;6687;47.790;7.322;2023-06-10T07:00:37;98591.63;;;26.97;39.22
13241;BME280;6687;47.790;7.322;2023-06-10T07:03:04;98591.38;;;27.26;39.29
13241;BME280;6687;47.790;7.322;2023-06-10T07:05:30;98589.31;;;28.02;38.43
13241;BME280;6687;47.790;7.322;2023-06-10T07:07:58;98585.84;;;27.16;39.37
13241;BME280;6687;47.790;7.322;2023-06-10T07:10:26;98591.47;;;27.96;38.81
13241;BME280;6687;47.790;7.322;2023-06-10T07:12:53;98596.09;;;27.33;39.28
13241;BME280;6687;47.790;7.322;2023-06-10T07:15:20;98589.47;;;28.11;38.39
13241;BME280;6687;47.790;7.322;2023-06-10T07:17:47;98591.06;;;28.36;38.26
13241;BME280;6687;47.790;7.322;2023-06-10T07:20:13;98590.25;;;28.47;37.83
13241;BME280;6687;47.790;7.322;2023-06-10T07:22:41;98601.00;;;28.34;37.85
13241;BME280;6687;47.790;7.322;2023-06-10T07:25:09;98594.03;;;28.90;36.32
13241;BME280;6687;47.790;7.322;2023-06-10T07:27:36;98594.25;;;29.21;36.33
13241;BME280;6687;47.790;7.322;2023-06-10T07:30:04;98595.72;;;29.02;36.83
13241;BME280;6687;47.790;7.322;2023-06-10T07:32:32;98597.19;;;28.72;36.79
13241;BME280;6687;47.790;7.322;2023-06-10T07:34:59;98592.19;;;29.68;35.71
13241;BME280;6687;47.790;7.322;2023-06-10T07:37:25;98594.66;;;29.48;35.60
13241;BME280;6687;47.790;7.322;2023-06-10T07:39:52;98600.25;;;29.57;35.82
13241;BME280;6687;47.790;7.322;2023-06-10T07:42:20;98597.59;;;29.45;35.93
13241;BME280;6687;47.790;7.322;2023-06-10T07:44:47;98603.31;;;29.84;35.44
13241;BME280;6687;47.790;7.322;2023-06-10T07:47:14;98598.19;;;29.92;34.97
13241;BME280;6687;47.790;7.322;2023-06-10T07:49:40;98596.44;;;30.03;35.36
13241;BME280;6687;47.790;7.322;2023-06-10T07:52:08;98594.97;;;29.66;35.47
13241;BME280;6687;47.790;7.322;2023-06-10T07:54:34;98592.22;;;28.79;36.30
13241;BME280;6687;47.790;7.322;2023-06-10T07:57:01;98595.09;;;29.76;35.26
13241;BME280;6687;47.790;7.322;2023-06-10T07:59:29;98595.78;;;30.10;34.96
13241;BME280;6687;47.790;7.322;2023-06-10T08:01:56;98593.25;;;30.51;34.18
13241;BME280;6687;47.790;7.322;2023-06-10T08:04:23;98592.47;;;30.39;33.74
13241;BME280;6687;47.790;7.322;2023-06-10T08:06:49;98591.69;;;30.48;33.97
13241;BME280;6687;47.790;7.322;2023-06-10T08:09:16;98594.66;;;29.92;34.38
13241;BME280;6687;47.790;7.322;2023-06-10T08:11:43;98597.41;;;29.69;34.33
13241;BME280;6687;47.790;7.322;2023-06-10T08:14:10;98601.34;;;29.86;34.85
13241;BME280;6687;47.790;7.322;2023-06-10T08:16:38;98600.34;;;29.99;34.13
13241;BME280;6687;47.790;7.322;2023-06-10T08:19:05;98595.03;;;30.41;33.97
13241;BME280;6687;47.790;7.322;2023-06-10T08:21:31;98593.88;;;30.95;33.10
13241;BME280;6687;47.790;7.322;2023-06-10T08:23:58;98590.63;;;30.91;32.46
13241;BME280;6687;47.790;7.322;2023-06-10T08:26:25;98596.19;;;30.79;32.14
13241;BME280;6687;47.790;7.322;2023-06-10T08:28:52;98594.53;;;31.28;31.93
13241;BME280;6687;47.790;7.322;2023-06-10T08:31:19;98590.22;;;30.65;31.74
13241;BME280;6687;47.790;7.322;2023-06-10T08:33:47;98592.34;;;30.92;31.89
13241;BME280;6687;47.790;7.322;2023-06-10T08:36:14;98596.03;;;31.51;31.54
13241;BME280;6687;47.790;7.322;2023-06-10T08:38:41;98581.91;;;31.59;32.04
13241;BME280;6687;47.790;7.322;2023-06-10T08:41:09;98585.97;;;31.34;32.01
13241;BME280;6687;47.790;7.322;2023-06-10T08:43:42;98573.25;;;30.76;31.76
13241;BME280;6687;47.790;7.322;2023-06-10T08:46:10;98579.59;;;31.35;31.26
13241;BME280;6687;47.790;7.322;2023-06-10T08:48:42;98572.34;;;31.86;31.13
13241;BME280;6687;47.790;7.322;2023-06-10T08:51:11;98578.66;;;31.95;30.63
13241;BME280;6687;47.790;7.322;2023-06-10T08:53:41;98574.13;;;32.24;30.37
13241;BME280;6687;47.790;7.322;2023-06-10T08:56:11;98565.28;;;32.14;30.22
13241;BME280;6687;47.790;7.322;2023-06-10T08:58:39;98568.59;;;32.36;30.46
13241;BME280;6687;47.790;7.322;2023-06-10T09:01:07;98564.19;;;32.92;29.78
13241;BME280;6687;47.790;7.322;2023-06-10T09:03:35;98567.41;;;32.67;28.88
13241;BME280;6687;47.790;7.322;2023-06-10T09:06:04;98568.75;;;32.34;28.77
13241;BME280;6687;47.790;7.322;2023-06-10T09:08:33;98558.69;;;33.21;29.00
13241;BME280;6687;47.790;7.322;2023-06-10T09:11:00;98559.50;;;33.21;29.29
13241;BME280;6687;47.790;7.322;2023-06-10T09:13:27;98558.75;;;33.47;29.12
13241;BME280;6687;47.790;7.322;2023-06-10T09:15:54;98565.16;;;33.64;28.41
13241;BME280;6687;47.790;7.322;2023-06-10T09:18:26;98560.13;;;33.15;28.60
13241;BME280;6687;47.790;7.322;2023-06-10T09:20:53;98550.84;;;33.45;27.94
13241;BME280;6687;47.790;7.322;2023-06-10T09:23:19;98561.44;;;34.01;27.70
13241;BME280;6687;47.790;7.322;2023-06-10T09:25:56;98563.19;;;33.38;27.72
13241;BME280;6687;47.790;7.322;2023-06-10T09:28:23;98562.28;;;34.01;27.42
13241;BME280;6687;47.790;7.322;2023-06-10T09:30:50;98554.53;;;34.16;27.49
13241;BME280;6687;47.790;7.322;2023-06-10T09:33:27;98554.25;;;34.10;27.51
13241;BME280;6687;47.790;7.322;2023-06-10T09:35:54;98561.03;;;32.96;27.44
13241;BME280;6687;47.790;7.322;2023-06-10T09:38:29;98562.13;;;34.03;27.55
13241;BME280;6687;47.790;7.322;2023-06-10T09:40:58;98555.50;;;34.15;27.82
13241;BME280;6687;47.790;7.322;2023-06-10T09:43:39;98555.44;;;34.59;27.06
13241;BME280;6687;47.790;7.322;2023-06-10T09:46:07;98552.91;;;34.58;26.64
13241;BME280;6687;47.790;7.322;2023-06-10T09:48:40;98556.94;;;34.88;25.65
13241;BME280;6687;47.790;7.322;2023-06-10T09:51:09;98557.13;;;34.60;26.07
13241;BME280;6687;47.790;7.322;2023-06-10T09:53:36;98553.22;;;34.55;26.40
13241;BME280;6687;47.790;7.322;2023-06-10T09:56:04;98560.38;;;33.94;26.79
13241;BME280;6687;47.790;7.322;2023-06-10T09:58:35;98558.06;;;34.77;25.94
13241;BME280;6687;47.790;7.322;2023-06-10T10:01:05;98560.34;;;34.98;26.03
13241;BME280;6687;47.790;7.322;2023-06-10T10:03:31;98549.59;;;35.06;26.37
13241;BME280;6687;47.790;7.322;2023-06-10T10:05:58;98552.75;;;35.53;25.78
13241;BME280;6687;47.790;7.322;2023-06-10T10:08:26;98541.13;;;35.52;25.98
13241;BME280;6687;47.790;7.322;2023-06-10T10:10:52;98542.69;;;35.79;24.76
13241;BME280;6687;47.790;7.322;2023-06-10T10:13:21;98540.63;;;35.49;24.54
13241;BME280;6687;47.790;7.322;2023-06-10T10:15:48;98542.31;;;35.50;25.27
13241;BME280;6687;47.790;7.322;2023-06-10T10:18:17;98547.13;;;34.71;25.62
13241;BME280;6687;47.790;7.322;2023-06-10T10:20:50;98547.06;;;35.80;24.99
13241;BME280;6687;47.790;7.322;2023-06-10T10:23:22;98538.22;;;35.37;25.04
13241;BME280;6687;47.790;7.322;2023-06-10T10:25:52;98545.31;;;35.38;24.18
13241;BME280;6687;47.790;7.322;2023-06-10T10:28:24;98538.44;;;36.26;24.19
13241;BME280;6687;47.790;7.322;2023-06-10T10:30:54;98546.00;;;36.47;24.54
13241;BME280;6687;47.790;7.322;2023-06-10T10:33:31;98544.16;;;35.49;24.69
13241;BME280;6687;47.790;7.322;2023-06-10T10:36:00;98536.56;;;35.36;24.03
13241;BME280;6687;47.790;7.322;2023-06-10T10:38:27;98545.31;;;35.47;24.95
13241;BME280;6687;47.790;7.322;2023-06-10T10:40:55;98536.59;;;36.02;23.92
13241;BME280;6687;47.790;7.322;2023-06-10T10:43:26;98536.69;;;36.97;24.45
13241;BME280;6687;47.790;7.322;2023-06-10T10:46:00;98529.91;;;37.01;22.98
13241;BME280;6687;47.790;7.322;2023-06-10T10:48:33;98527.91;;;36.95;23.48
13241;BME280;6687;47.790;7.322;2023-06-10T10:51:01;98533.53;;;36.86;24.30
13241;BME280;6687;47.790;7.322;2023-06-10T10:53:27;98527.16;;;36.22;24.24
13241;BME280;6687;47.790;7.322;2023-06-10T10:55:58;98528.97;;;36.86;22.77
13241;BME280;6687;47.790;7.322;2023-06-10T10:58:26;98528.16;;;36.30;23.57
13241;BME280;6687;47.790;7.322;2023-06-10T11:00:53;98529.00;;;35.48;24.20
13241;BME280;6687;47.790;7.322;2023-06-10T11:03:20;98525.69;;;36.68;22.97
13241;BME280;6687;47.790;7.322;2023-06-10T11:05:48;98526.16;;;36.15;23.64
13241;BME280;6687;47.790;7.322;2023-06-10T11:08:16;98524.94;;;36.82;22.52
13241;BME280;6687;47.790;7.322;2023-06-10T11:11:18;98519.06;;;37.10;21.89
13241;BME280;6687;47.790;7.322;2023-06-10T11:14:04;98521.28;;;36.58;22.26
13241;BME280;6687;47.790;7.322;2023-06-10T11:16:39;98529.84;;;35.65;23.50
13241;BME280;6687;47.790;7.322;2023-06-10T11:19:07;98514.50;;;36.79;23.01
13241;BME280;6687;47.790;7.322;2023-06-10T11:21:57;98517.13;;;36.95;21.82
13241;BME280;6687;47.790;7.322;2023-06-10T11:24:24;98522.69;;;36.94;21.60
13241;BME280;6687;47.790;7.322;2023-06-10T11:26:52;98514.88;;;37.30;22.44
13241;BME280;6687;47.790;7.322;2023-06-10T11:29:21;98509.78;;;37.81;21.29
13241;BME280;6687;47.790;7.322;2023-06-10T11:31:51;98518.25;;;36.70;22.15
13241;BME280;6687;47.790;7.322;2023-06-10T11:34:22;98516.22;;;36.16;23.76
13241;BME280;6687;47.790;7.322;2023-06-10T11:36:51;98513.97;;;37.69;21.80
13241;BME280;6687;47.790;7.322;2023-06-10T11:39:19;98509.94;;;38.48;21.45
13241;BME280;6687;47.790;7.322;2023-06-10T11:41:46;98505.72;;;38.90;20.68
13241;BME280;6687;47.790;7.322;2023-06-10T11:44:13;98505.22;;;39.16;20.58
13241;BME280;6687;47.790;7.322;2023-06-10T11:46:41;98503.94;;;37.93;21.87
13241;BME280;6687;47.790;7.322;2023-06-10T11:49:09;98507.34;;;37.49;21.51
13241;BME280;6687;47.790;7.322;2023-06-10T11:51:37;98506.69;;;36.84;22.35
13241;BME280;6687;47.790;7.322;2023-06-10T11:54:05;98502.66;;;37.42;21.72
13241;BME280;6687;47.790;7.322;2023-06-10T11:56:32;98492.53;;;37.36;21.57
13241;BME280;6687;47.790;7.322;2023-06-10T11:59:00;98488.59;;;38.23;20.95
13241;BME280;6687;47.790;7.322;2023-06-10T12:01:30;98492.94;;;38.98;20.83
13241;BME280;6687;47.790;7.322;2023-06-10T12:04:02;98492.28;;;37.92;21.21
13241;BME280;6687;47.790;7.322;2023-06-10T12:06:38;98493.00;;;37.86;20.58
13241;BME280;6687;47.790;7.322;2023-06-10T12:09:06;98490.81;;;37.44;21.96
13241;BME280;6687;47.790;7.322;2023-06-10T12:11:33;98483.19;;;37.47;21.49
13241;BME280;6687;47.790;7.322;2023-06-10T12:14:00;98492.97;;;38.39;21.05
13241;BME280;6687;47.790;7.322;2023-06-10T12:16:29;98484.88;;;37.71;20.92
13241;BME280;6687;47.790;7.322;2023-06-10T12:19:03;98475.78;;;38.62;21.12
13241;BME280;6687;47.790;7.322;2023-06-10T12:21:31;98482.31;;;38.82;20.16
13241;BME280;6687;47.790;7.322;2023-06-10T12:24:07;98479.53;;;39.33;20.70
13241;BME280;6687;47.790;7.322;2023-06-10T12:26:38;98476.03;;;38.82;19.40
13241;BME280;6687;47.790;7.322;2023-06-10T12:29:20;98471.81;;;39.52;20.11
13241;BME280;6687;47.790;7.322;2023-06-10T12:31:55;98475.81;;;39.84;19.75
13241;BME280;6687;47.790;7.322;2023-06-10T12:34:32;98465.25;;;39.89;18.76
13241;BME280;6687;47.790;7.322;2023-06-10T12:36:59;98467.16;;;40.30;18.76
13241;BME280;6687;47.790;7.322;2023-06-10T12:39:26;98464.28;;;40.80;18.44
13241;BME280;6687;47.790;7.322;2023-06-10T12:41:54;98460.41;;;40.54;18.80
13241;BME280;6687;47.790;7.322;2023-06-10T12:44:31;98461.56;;;40.32;19.11
13241;BME280;6687;47.790;7.322;2023-06-10T12:46:58;98462.84;;;40.36;18.24
13241;BME280;6687;47.790;7.322;2023-06-10T12:49:25;98464.75;;;40.07;18.64
13241;BME280;6687;47.790;7.322;2023-06-10T12:51:54;98448.72;;;40.61;17.92
13241;BME280;6687;47.790;7.322;2023-06-10T12:54:21;98458.41;;;39.72;18.96
13241;BME280;6687;47.790;7.322;2023-06-10T12:56:48;98453.94;;;40.21;18.21
13241;BME280;6687;47.790;7.322;2023-06-10T12:59:15;98453.22;;;40.75;18.05
13241;BME280;6687;47.790;7.322;2023-06-10T13:01:42;98451.91;;;39.23;18.41
13241;BME280;6687;47.790;7.322;2023-06-10T13:04:08;98458.44;;;39.78;18.55
13241;BME280;6687;47.790;7.322;2023-06-10T13:06:35;98449.59;;;39.42;18.79
13241;BME280;6687;47.790;7.322;2023-06-10T13:09:09;98437.00;;;40.53;18.06
13241;BME280;6687;47.790;7.322;2023-06-10T13:11:36;98437.97;;;39.05;18.72
13241;BME280;6687;47.790;7.322;2023-06-10T13:14:03;98437.03;;;40.67;18.20
13241;BME280;6687;47.790;7.322;2023-06-10T13:16:31;98433.97;;;40.77;18.29
13241;BME280;6687;47.790;7.322;2023-06-10T13:18:59;98428.75;;;40.82;18.46
13241;BME280;6687;47.790;7.322;2023-06-10T13:21:26;98427.97;;;41.14;18.18
13241;BME280;6687;47.790;7.322;2023-06-10T13:23:52;98420.28;;;41.31;17.93
13241;BME280;6687;47.790;7.322;2023-06-10T13:26:20;98425.94;;;41.23;17.57
13241;BME280;6687;47.790;7.322;2023-06-10T13:28:47;98417.28;;;41.00;18.13
13241;BME280;6687;47.790;7.322;2023-06-10T13:31:14;98417.50;;;42.11;17.14
13241;BME280;6687;47.790;7.322;2023-06-10T13:33:41;98408.06;;;42.21;17.35
13241;BME280;6687;47.790;7.322;2023-06-10T13:36:09;98414.00;;;41.38;17.15
13241;BME280;6687;47.790;7.322;2023-06-10T13:38:35;98412.28;;;41.03;17.88
13241;BME280;6687;47.790;7.322;2023-06-10T13:41:02;98410.03;;;41.47;17.54
13241;BME280;6687;47.790;7.322;2023-06-10T13:43:30;98405.38;;;41.01;17.70
13241;BME280;6687;47.790;7.322;2023-06-10T13:45:57;98409.75;;;40.88;17.31
13241;BME280;6687;47.790;7.322;2023-06-10T13:48:24;98406.00;;;41.03;17.94
13241;BME280;6687;47.790;7.322;2023-06-10T13:50:50;98404.19;;;41.43;17.76
13241;BME280;6687;47.790;7.322;2023-06-10T13:53:17;98402.50;;;41.36;17.62
13241;BME280;6687;47.790;7.322;2023-06-10T13:55:44;98401.34;;;40.22;17.48
13241;BME280;6687;47.790;7.322;2023-06-10T13:58:10;98403.00;;;40.23;17.26
13241;BME280;6687;47.790;7.322;2023-06-10T14:00:38;98401.69;;;38.84;18.86
13241;BME280;6687;47.790;7.322;2023-06-10T14:03:06;98395.72;;;40.78;17.97
13241;BME280;6687;47.790;7.322;2023-06-10T14:05:33;98404.41;;;39.27;18.02
13241;BME280;6687;47.790;7.322;2023-06-10T14:07:59;98397.38;;;38.53;18.88
13241;BME280;6687;47.790;7.322;2023-06-10T14:10:26;98406.00;;;39.71;18.94
13241;BME280;6687;47.790;7.322;2023-06-10T14:12:53;98410.78;;;38.76;19.09
13241;BME280;6687;47.790;7.322;2023-06-10T14:15:20;98402.81;;;37.94;20.47
13241;BME280;6687;47.790;7.322;2023-06-10T14:17:48;98408.53;;;39.23;18.87
13241;BME280;6687;47.790;7.322;2023-06-10T14:20:15;98395.47;;;39.33;19.50
13241;BME280;6687;47.790;7.322;2023-06-10T14:22:41;98403.53;;;39.20;19.22
13241;BME280;6687;47.790;7.322;2023-06-10T14:25:08;98394.47;;;39.34;19.16
13241;BME280;6687;47.790;7.322;2023-06-10T14:27:36;98386.22;;;39.43;19.47
13241;BME280;6687;47.790;7.322;2023-06-10T14:30:04;98397.44;;;38.96;19.54
13241;BME280;6687;47.790;7.322;2023-06-10T14:32:30;98392.25;;;38.58;20.21
13241;BME280;6687;47.790;7.322;2023-06-10T14:34:59;98391.41;;;38.43;19.54
13241;BME280;6687;47.790;7.322;2023-06-10T14:37:25;98389.47;;;38.95;19.17
13241;BME280;6687;47.790;7.322;2023-06-10T14:39:52;98389.38;;;37.86;20.71
13241;BME280;6687;47.790;7.322;2023-06-10T14:42:19;98381.31;;;38.52;20.10
13241;BME280;6687;47.790;7.322;2023-06-10T14:44:45;98379.88;;;38.92;19.96
13241;BME280;6687;47.790;7.322;2023-06-10T14:47:12;98390.53;;;38.72;19.47
13241;BME280;6687;47.790;7.322;2023-06-10T14:49:39;98373.47;;;39.43;19.79
13241;BME280;6687;47.790;7.322;2023-06-10T14:52:09;98380.09;;;39.62;18.82
13241;BME280;6687;47.790;7.322;2023-06-10T14:54:36;98372.81;;;39.97;18.19
13241;BME280;6687;47.790;7.322;2023-06-10T14:57:03;98375.63;;;39.83;19.15
13241;BME280;6687;47.790;7.322;2023-06-10T14:59:31;98374.09;;;40.43;18.69
13241;BME280;6687;47.790;7.322;2023-06-10T15:01:58;98366.66;;;40.24;17.45
13241;BME280;6687;47.790;7.322;2023-06-10T15:04:26;98359.56;;;40.84;18.05
13241;BME280;6687;47.790;7.322;2023-06-10T15:06:52;98361.06;;;40.93;18.29
13241;BME280;6687;47.790;7.322;2023-06-10T15:09:20;98361.47;;;41.17;17.85
13241;BME280;6687;47.790;7.322;2023-06-10T15:11:47;98358.28;;;40.19;17.71
13241;BME280;6687;47.790;7.322;2023-06-10T15:14:14;98366.72;;;39.11;18.41
13241;BME280;6687;47.790;7.322;2023-06-10T15:16:40;98364.78;;;39.26;18.62
13241;BME280;6687;47.790;7.322;2023-06-10T15:19:07;98358.47;;;40.10;18.17
13241;BME280;6687;47.790;7.322;2023-06-10T15:21:35;98349.31;;;40.73;17.09
13241;BME280;6687;47.790;7.322;2023-06-10T15:24:01;98364.16;;;40.90;17.25
13241;BME280;6687;47.790;7.322;2023-06-10T15:26:29;98357.84;;;40.15;17.73
13241;BME280;6687;47.790;7.322;2023-06-10T15:28:56;98363.47;;;40.07;18.14
13241;BME280;6687;47.790;7.322;2023-06-10T15:31:23;98365.06;;;39.10;18.99
13241;BME280;6687;47.790;7.322;2023-06-10T15:33:50;98363.28;;;37.25;20.16
13241;BME280;6687;47.790;7.322;2023-06-10T15:36:16;98360.81;;;39.50;18.47
13241;BME280;6687;47.790;7.322;2023-06-10T15:38:43;98366.91;;;39.87;18.29
13241;BME280;6687;47.790;7.322;2023-06-10T15:41:11;98357.69;;;39.82;18.61
13241;BME280;6687;47.790;7.322;2023-06-10T15:43:39;98348.03;;;39.79;18.42
13241;BME280;6687;47.790;7.322;2023-06-10T15:46:07;98351.69;;;39.93;18.32
13241;BME280;6687;47.790;7.322;2023-06-10T15:48:33;98349.88;;;40.07;17.89
13241;BME280;6687;47.790;7.322;2023-06-10T15:51:00;98344.25;;;40.63;17.75
13241;BME280;6687;47.790;7.322;2023-06-10T15:53:27;98339.91;;;40.21;17.43
13241;BME280;6687;47.790;7.322;2023-06-10T15:55:53;98349.16;;;38.64;19.24
13241;BME280;6687;47.790;7.322;2023-06-10T15:58:20;98348.38;;;38.70;18.76
13241;BME280;6687;47.790;7.322;2023-06-10T16:00:48;98341.13;;;39.42;19.26
13241;BME280;6687;47.790;7.322;2023-06-10T16:03:15;98350.03;;;38.49;19.36
13241;BME280;6687;47.790;7.322;2023-06-10T16:05:42;98341.22;;;37.96;19.85
13241;BME280;6687;47.790;7.322;2023-06-10T16:08:09;98343.56;;;36.39;21.33
13241;BME280;6687;47.790;7.322;2023-06-10T16:10:35;98345.50;;;37.08;20.37
13241;BME280;6687;47.790;7.322;2023-06-10T16:13:02;98345.88;;;37.42;20.87
13241;BME280;6687;47.790;7.322;2023-06-10T16:15:29;98339.56;;;37.12;20.82
13241;BME280;6687;47.790;7.322;2023-06-10T16:17:57;98339.19;;;37.98;19.44
13241;BME280;6687;47.790;7.322;2023-06-10T16:20:24;98349.06;;;36.85;20.32
13241;BME280;6687;47.790;7.322;2023-06-10T16:22:51;98340.69;;;38.15;19.89
13241;BME280;6687;47.790;7.322;2023-06-10T16:25:17;98339.16;;;38.28;19.63
13241;BME280;6687;47.790;7.322;2023-06-10T16:27:44;98331.31;;;37.44;20.22
13241;BME280;6687;47.790;7.322;2023-06-10T16:30:11;98338.72;;;38.61;19.63
13241;BME280;6687;47.790;7.322;2023-06-10T16:32:39;98326.84;;;39.26;18.55
13241;BME280;6687;47.790;7.322;2023-06-10T16:35:08;98329.56;;;39.05;18.39
13241;BME280;6687;47.790;7.322;2023-06-10T16:37:35;98335.38;;;38.58;19.23
13241;BME280;6687;47.790;7.322;2023-06-10T16:40:02;98330.28;;;39.42;18.25
13241;BME280;6687;47.790;7.322;2023-06-10T16:42:29;98335.16;;;39.53;18.22
13241;BME280;6687;47.790;7.322;2023-06-10T16:44:55;98333.13;;;39.90;18.31
13241;BME280;6687;47.790;7.322;2023-06-10T16:47:22;98335.94;;;40.16;18.32
13241;BME280;6687;47.790;7.322;2023-06-10T16:49:49;98340.63;;;39.31;18.75
13241;BME280;6687;47.790;7.322;2023-06-10T16:52:17;98331.75;;;39.72;18.38
13241;BME280;6687;47.790;7.322;2023-06-10T16:54:44;98334.19;;;40.50;17.59
13241;BME280;6687;47.790;7.322;2023-06-10T16:57:11;98331.66;;;40.42;17.63
13241;BME280;6687;47.790;7.322;2023-06-10T16:59:38;98332.84;;;39.85;18.24
13241;BME280;6687;47.790;7.322;2023-06-10T17:02:05;98336.13;;;40.08;17.67
13241;BME280;6687;47.790;7.322;2023-06-10T17:04:32;98332.41;;;40.23;18.02
13241;BME280;6687;47.790;7.322;2023-06-10T17:06:59;98340.91;;;38.72;19.12
13241;BME280;6687;47.790;7.322;2023-06-10T17:09:27;98336.72;;;39.41;18.83
13241;BME280;6687;47.790;7.322;2023-06-10T17:11:54;98334.81;;;37.67;19.77
13241;BME280;6687;47.790;7.322;2023-06-10T17:14:21;98348.03;;;36.55;21.35
13241;BME280;6687;47.790;7.322;2023-06-10T17:16:49;98346.78;;;38.39;19.77
13241;BME280;6687;47.790;7.322;2023-06-10T17:19:16;98350.50;;;37.87;20.20
13241;BME280;6687;47.790;7.322;2023-06-10T17:21:42;98353.09;;;38.25;19.54
13241;BME280;6687;47.790;7.322;2023-06-10T17:24:09;98350.56;;;36.56;21.15
13241;BME280;6687;47.790;7.322;2023-06-10T17:26:37;98354.47;;;36.22;22.09
13241;BME280;6687;47.790;7.322;2023-06-10T17:29:04;98354.69;;;35.40;22.73
13241;BME280;6687;47.790;7.322;2023-06-10T17:31:30;98362.69;;;35.65;23.10
13241;BME280;6687;47.790;7.322;2023-06-10T17:33:57;98363.97;;;36.02;22.14
13241;BME280;6687;47.790;7.322;2023-06-10T17:36:24;98373.31;;;36.31;22.51
13241;BME280;6687;47.790;7.322;2023-06-10T17:38:51;98374.47;;;35.89;23.10
13241;BME280;6687;47.790;7.322;2023-06-10T17:41:17;98373.19;;;35.60;24.17
13241;BME280;6687;47.790;7.322;2023-06-10T17:43:45;98375.97;;;36.39;23.07
13241;BME280;6687;47.790;7.322;2023-06-10T17:46:12;98382.16;;;36.16;23.64
13241;BME280;6687;47.790;7.322;2023-06-10T17:48:39;98382.47;;;35.41;24.00
13241;BME280;6687;47.790;7.322;2023-06-10T17:51:05;98378.97;;;35.16;24.23
13241;BME280;6687;47.790;7.322;2023-06-10T17:53:32;98383.13;;;34.26;25.27
13241;BME280;6687;47.790;7.322;2023-06-10T17:55:59;98380.59;;;35.00;24.88
13241;BME280;6687;47.790;7.322;2023-06-10T17:58:25;98380.31;;;35.20;24.04
13241;BME280;6687;47.790;7.322;2023-06-10T18:00:54;98377.22;;;34.98;24.33
13241;BME280;6687;47.790;7.322;2023-06-10T18:03:20;98381.25;;;35.60;23.60
13241;BME280;6687;47.790;7.322;2023-06-10T18:05:52;98377.88;;;34.76;24.54
13241;BME280;6687;47.790;7.322;2023-06-10T18:08:19;98378.09;;;35.32;24.40
13241;BME280;6687;47.790;7.322;2023-06-10T18:10:46;98376.88;;;35.51;24.14
13241;BME280;6687;47.790;7.322;2023-06-10T18:13:13;98384.63;;;34.88;24.19
13241;BME280;6687;47.790;7.322;2023-06-10T18:15:39;98387.94;;;34.65;24.82
13241;BME280;6687;47.790;7.322;2023-06-10T18:18:07;98387.19;;;33.78;25.90
13241;BME280;6687;47.790;7.322;2023-06-10T18:20:34;98386.00;;;33.99;25.87
13241;BME280;6687;47.790;7.322;2023-06-10T18:23:01;98392.31;;;33.90;25.94
13241;BME280;6687;47.790;7.322;2023-06-10T18:25:28;98390.94;;;33.33;26.84
13241;BME280;6687;47.790;7.322;2023-06-10T18:27:55;98389.66;;;33.45;26.86
13241;BME280;6687;47.790;7.322;2023-06-10T18:30:22;98385.78;;;32.68;27.80
13241;BME280;6687;47.790;7.322;2023-06-10T18:32:49;98399.66;;;32.63;28.16
13241;BME280;6687;47.790;7.322;2023-06-10T18:35:19;98395.97;;;32.37;28.31
13241;BME280;6687;47.790;7.322;2023-06-10T18:37:45;98403.41;;;32.43;28.23